Time;durP1;ratioP1;P1;durP2;ratioP2;P2;SDS_P1;SDS_P2;PMS_P1;PMS_P2;Temp;Humidity;BMP_temperature;BMP_pressure;BME280_temperature;BME280_humidity;BME280_pressure;Samples;Min_cycle;Max_cycle;Signal;HPM_P1;HPM_P2
2020/12/12 00:01:48;;;;;;;11.77;8.02;;;7.00;91.70;;;6.64;78.07;98113.94;4975944;28;20134;-86
2020/12/12 00:04:16;;;;;;;12.55;7.45;;;7.00;91.80;;;6.61;78.54;98115.19;4977122;28;20419;-87
2020/12/12 00:06:42;;;;;;;12.48;7.20;;;7.20;92.00;;;6.62;78.25;98116.84;4977260;28;20046;-87
2020/12/12 00:09:09;;;;;;;12.80;7.90;;;6.90;91.90;;;6.64;78.31;98114.78;4974536;28;20077;-87
2020/12/12 00:11:36;;;;;;;12.85;8.30;;;7.00;92.00;;;6.67;78.76;98110.78;4975982;28;20118;-87
2020/12/12 00:14:03;;;;;;;12.98;8.57;;;7.00;91.90;;;6.64;78.62;98122.88;4974741;28;20097;-87
2020/12/12 00:16:30;;;;;;;11.60;7.65;;;7.00;91.80;;;6.62;78.88;98126.81;4974600;28;20046;-87
2020/12/12 00:18:56;;;;;;;11.00;7.22;;;7.00;91.80;;;6.64;78.58;98130.13;4975522;28;20050;-87
2020/12/12 00:21:24;;;;;;;12.05;7.63;;;7.10;91.80;;;6.67;78.68;98124.31;4974240;28;20043;-87
2020/12/12 00:23:51;;;;;;;12.23;7.65;;;7.10;91.80;;;6.68;79.07;98119.72;4973602;28;20109;-87
2020/12/12 00:26:19;;;;;;;12.48;7.60;;;7.10;91.80;;;6.65;78.98;98124.53;4975652;28;20105;-87
2020/12/12 00:28:46;;;;;;;11.32;7.40;;;7.10;91.90;;;6.69;78.74;98118.69;4975481;28;20050;-87
2020/12/12 00:31:17;;;;;;;11.73;7.55;;;7.10;91.70;;;6.70;78.94;98125.75;4974740;28;20105;-87
2020/12/12 00:33:44;;;;;;;11.50;7.22;;;7.10;91.60;;;6.73;79.42;98122.59;4973769;28;20055;-87
2020/12/12 00:36:11;;;;;;;11.70;7.28;;;7.20;91.80;;;6.73;79.07;98128.00;4973579;28;20049;-87
2020/12/12 00:38:38;;;;;;;12.02;7.55;;;7.20;91.70;;;6.72;79.07;98131.75;4973325;28;20094;-87
2020/12/12 00:41:06;;;;;;;12.10;7.82;;;7.20;91.60;;;6.76;79.05;98133.81;4965329;28;20489;-87
2020/12/12 00:43:33;;;;;;;11.77;6.95;;;7.20;91.50;;;6.73;78.58;98131.53;4955786;28;20142;-86
2020/12/12 00:46:00;;;;;;;12.07;7.45;;;7.30;91.40;;;6.78;78.98;98130.91;4955835;28;20040;-86
2020/12/12 00:48:27;;;;;;;12.77;7.57;;;7.30;91.50;;;6.82;78.95;98137.50;4953977;29;20043;-86
2020/12/12 00:50:54;;;;;;;13.15;7.80;;;7.30;91.50;;;6.82;79.11;98137.50;4955478;28;20063;-87
2020/12/12 00:53:21;;;;;;;11.20;7.22;;;7.30;91.50;;;6.82;78.61;98138.34;4953340;29;20047;-87
2020/12/12 00:55:52;;;;;;;11.05;7.28;;;7.30;91.50;;;6.79;78.63;98137.94;4969462;28;20474;-87
2020/12/12 00:58:19;;;;;;;13.05;7.68;;;7.30;91.50;;;6.82;78.90;98140.22;4969744;28;20058;-86
2020/12/12 01:00:46;;;;;;;12.10;7.63;;;7.40;91.10;;;6.86;78.88;98138.72;4953760;29;20046;-87
2020/12/12 01:03:12;;;;;;;12.02;7.57;;;7.30;91.20;;;6.83;78.59;98134.59;4954444;28;20078;-86
2020/12/12 01:05:39;;;;;;;12.07;7.82;;;7.40;91.10;;;6.82;79.16;98141.03;4953334;29;20047;-87
2020/12/12 01:08:06;;;;;;;13.75;8.35;;;7.40;91.20;;;6.85;78.86;98137.91;4952098;29;20141;-86
2020/12/12 01:10:33;;;;;;;14.25;7.75;;;7.50;91.30;;;6.84;79.10;98140.81;4953392;28;20134;-86
2020/12/12 01:13:00;;;;;;;13.73;8.43;;;7.40;91.20;;;6.83;78.98;98147.28;4953119;28;20051;-86
2020/12/12 01:15:27;;;;;;;13.13;7.85;;;7.40;91.20;;;6.84;79.27;98147.06;4953091;28;20110;-86
2020/12/12 01:17:54;;;;;;;12.52;8.20;;;7.40;91.10;;;6.89;79.11;98149.09;4953399;28;20066;-86
2020/12/12 01:20:21;;;;;;;14.75;7.93;;;7.40;91.20;;;6.88;78.90;98143.94;4953542;28;20086;-86
2020/12/12 01:22:49;;;;;;;14.25;8.13;;;7.40;91.10;;;6.89;78.94;98150.97;4953243;28;20043;-86
2020/12/12 01:25:16;;;;;;;14.32;8.50;;;7.50;91.20;;;6.91;79.22;98155.13;4967684;28;20073;-87
2020/12/12 01:27:42;;;;;;;12.05;7.43;;;7.60;91.20;;;6.90;79.78;98153.47;4951830;29;20059;-86
2020/12/12 01:30:10;;;;;;;14.57;8.73;;;7.40;91.60;;;6.91;79.71;98163.25;4951622;29;20047;-86
2020/12/12 01:32:37;;;;;;;14.02;8.30;;;7.50;91.90;;;6.90;79.70;98161.56;4952956;28;20110;-86
2020/12/12 01:35:05;;;;;;;15.68;8.90;;;7.40;92.00;;;6.89;80.12;98176.13;4950234;28;20106;-86
2020/12/12 01:37:31;;;;;;;15.60;8.70;;;7.40;92.20;;;6.90;80.21;98169.69;4970284;28;20039;-86
2020/12/12 01:39:58;;;;;;;14.90;9.40;;;7.40;92.40;;;6.89;80.76;98173.41;4972621;28;20149;-87
2020/12/12 01:42:25;;;;;;;13.95;9.00;;;7.40;92.80;;;6.89;80.62;98168.00;4971997;28;20109;-87
2020/12/12 01:44:56;;;;;;;13.20;8.75;;;7.40;92.80;;;6.88;80.87;98170.97;4971529;28;20082;-87
2020/12/12 01:47:25;;;;;;;13.63;9.00;;;7.40;92.80;;;6.90;80.85;98175.09;4971579;28;20057;-87
2020/12/12 01:49:52;;;;;;;13.32;8.50;;;7.40;93.00;;;6.93;80.50;98171.97;4968023;28;20190;-87
2020/12/12 01:52:20;;;;;;;14.55;9.48;;;7.40;93.10;;;6.93;80.50;98163.84;4972779;28;20038;-87
2020/12/12 01:54:47;;;;;;;13.65;8.90;;;7.40;93.10;;;6.95;80.58;98169.88;4971042;28;20075;-86
2020/12/12 01:57:19;;;;;;;14.48;8.82;;;7.30;93.30;;;6.93;80.28;98174.66;4972613;28;20070;-86
2020/12/12 01:59:46;;;;;;;14.00;9.45;;;7.30;93.50;;;6.89;81.02;98176.13;4972467;28;20742;-86
2020/12/12 02:02:15;;;;;;;14.93;9.57;;;7.30;93.50;;;6.91;80.47;98176.75;4970449;28;20046;-86
2020/12/12 02:04:49;;;;;;;13.27;9.30;;;7.40;93.40;;;6.91;80.61;98171.34;4971583;28;20488;-86
2020/12/12 02:07:17;;;;;;;14.88;8.90;;;7.30;93.50;;;6.91;80.79;98173.22;4971923;28;20089;-86
2020/12/12 02:09:45;;;;;;;14.32;9.45;;;7.30;93.50;;;6.92;80.67;98175.69;4970446;28;20081;-86
2020/12/12 02:12:12;;;;;;;14.38;9.50;;;7.50;93.70;;;6.92;81.21;98175.69;4971810;28;20039;-86
2020/12/12 02:14:39;;;;;;;15.18;9.90;;;7.30;93.60;;;6.93;80.67;98177.38;4971519;28;20102;-86
2020/12/12 02:17:08;;;;;;;15.93;9.65;;;7.30;93.70;;;6.94;80.47;98162.78;4970589;28;20523;-87
2020/12/12 02:19:35;;;;;;;15.13;9.10;;;7.30;93.70;;;6.93;80.56;98166.56;4970835;28;20078;-86
2020/12/12 02:22:05;;;;;;;13.60;9.70;;;7.30;93.70;;;6.93;80.55;98174.66;4970599;28;20082;-86
2020/12/12 02:24:33;;;;;;;14.13;9.30;;;7.30;93.80;;;6.95;80.82;98169.00;4973487;28;20652;-86
2020/12/12 02:27:01;;;;;;;17.23;10.07;;;7.40;93.80;;;6.95;80.34;98177.13;4975404;28;20038;-86
2020/12/12 02:29:39;;;;;;;16.15;10.00;;;7.40;93.70;;;6.94;80.28;98179.00;4975480;28;20047;-87
2020/12/12 02:32:06;;;;;;;14.38;9.50;;;7.40;93.50;;;6.95;80.53;98180.69;4975544;28;20043;-86
2020/12/12 02:34:33;;;;;;;16.45;9.80;;;7.40;93.60;;;6.95;80.44;98177.13;4975072;28;20078;-86
2020/12/12 02:37:00;;;;;;;14.68;9.30;;;7.40;93.60;;;6.96;81.13;98176.09;4975056;28;20122;-86
2020/12/12 02:39:28;;;;;;;14.88;9.52;;;7.40;93.80;;;6.96;80.55;98179.63;4975159;28;20838;-86
2020/12/12 02:41:54;;;;;;;16.40;9.82;;;7.40;93.80;;;6.98;80.38;98177.53;4975183;28;20070;-86
2020/12/12 02:44:21;;;;;;;17.08;9.85;;;7.40;93.70;;;6.97;80.74;98184.00;4975021;28;20078;-86
2020/12/12 02:46:48;;;;;;;14.73;9.75;;;7.60;93.90;;;6.99;80.45;98181.91;4975217;28;20070;-87
2020/12/12 02:49:15;;;;;;;13.88;9.13;;;7.40;93.70;;;6.99;80.70;98178.38;4975185;28;20039;-86
2020/12/12 02:51:42;;;;;;;14.63;9.57;;;7.40;93.70;;;6.98;80.79;98180.22;4974118;28;20081;-86
2020/12/12 02:54:09;;;;;;;16.25;9.20;;;7.40;93.80;;;6.95;81.17;98186.09;4974915;28;20453;-86
2020/12/12 02:56:37;;;;;;;16.48;9.75;;;7.40;93.80;;;6.98;81.12;98191.03;4974824;28;20074;-87
2020/12/12 02:59:04;;;;;;;14.65;9.40;;;7.40;93.80;;;7.00;80.96;98194.34;4974953;28;20508;-86
2020/12/12 03:01:30;;;;;;;14.60;9.70;;;7.40;93.70;;;7.04;80.27;98192.91;4974967;28;20078;-86
2020/12/12 03:03:57;;;;;;;14.45;9.32;;;7.40;93.70;;;7.03;80.72;98193.09;4974695;28;20054;-86
2020/12/12 03:06:24;;;;;;;14.25;9.15;;;7.40;93.60;;;7.07;79.85;98196.22;4974780;28;20125;-86
2020/12/12 03:08:51;;;;;;;15.23;9.80;;;7.40;93.40;;;7.07;80.38;98196.22;4974614;28;20118;-86
2020/12/12 03:11:17;;;;;;;14.57;9.88;;;7.50;93.60;;;7.08;80.52;98190.56;4974550;28;20043;-86
2020/12/12 03:13:45;;;;;;;15.82;9.73;;;7.40;93.60;;;7.07;80.75;98188.91;4974419;28;20078;-87
2020/12/12 03:16:12;;;;;;;15.27;9.95;;;7.50;93.80;;;7.08;80.59;98195.97;4973869;28;20098;-86
2020/12/12 03:18:39;;;;;;;15.20;9.70;;;7.40;93.50;;;7.00;81.01;98194.34;4978605;28;20070;-86
2020/12/12 03:21:06;;;;;;;15.57;9.73;;;7.50;93.60;;;7.00;80.64;98201.66;4978299;28;20074;-86
2020/12/12 03:23:32;;;;;;;16.00;9.80;;;7.50;93.60;;;7.04;81.23;98195.59;4976280;28;20127;-86
2020/12/12 03:25:59;;;;;;;15.13;9.50;;;7.60;93.70;;;7.03;80.97;98193.94;4974475;28;20105;-86
2020/12/12 03:28:26;;;;;;;14.77;9.23;;;7.50;93.60;;;7.07;80.64;98201.63;4974406;28;20491;-86
2020/12/12 03:30:53;;;;;;;16.15;9.57;;;7.50;93.70;;;7.07;80.82;98201.63;4974420;28;20074;-86
2020/12/12 03:33:20;;;;;;;14.25;9.02;;;7.50;93.60;;;7.09;80.50;98207.63;4973819;28;20093;-86
2020/12/12 03:35:47;;;;;;;14.75;9.73;;;7.50;93.70;;;7.13;80.71;98208.84;4973536;28;20675;-86
2020/12/12 03:38:14;;;;;;;15.25;9.27;;;7.50;93.70;;;7.11;80.53;98203.66;4973898;28;20062;-86
2020/12/12 03:40:40;;;;;;;17.77;9.75;;;7.50;93.70;;;7.10;80.86;98207.41;4972921;28;20480;-86
2020/12/12 03:43:07;;;;;;;17.83;9.48;;;7.50;93.60;;;7.08;80.63;98220.31;4974097;28;20043;-86
2020/12/12 03:45:34;;;;;;;16.48;9.88;;;7.50;93.50;;;7.11;80.98;98221.75;4973744;28;20402;-86
2020/12/12 03:48:01;;;;;;;14.32;9.32;;;7.50;93.40;;;7.11;81.05;98219.06;4973990;28;20432;-86
2020/12/12 03:50:28;;;;;;;14.38;8.95;;;7.60;93.40;;;7.11;80.98;98213.66;4974043;28;20129;-86
2020/12/12 03:52:55;;;;;;;13.82;8.25;;;7.60;93.50;;;7.11;80.86;98219.06;4975277;28;20581;-87
2020/12/12 03:55:22;;;;;;;13.55;9.43;;;7.60;93.60;;;7.11;80.72;98213.66;4979504;28;20066;-87
2020/12/12 03:57:49;;;;;;;14.70;9.50;;;7.60;93.30;;;7.16;80.39;98222.75;4978879;28;20071;-86
2020/12/12 04:00:16;;;;;;;15.73;9.10;;;7.60;93.40;;;7.15;80.55;98220.28;4979562;28;20047;-87
2020/12/12 04:02:43;;;;;;;14.70;9.50;;;7.60;93.30;;;7.17;80.45;98224.41;4979258;28;20051;-87
2020/12/12 04:05:10;;;;;;;14.77;9.45;;;7.60;93.30;;;7.16;80.73;98222.75;4976660;28;20086;-87
2020/12/12 04:07:37;;;;;;;14.63;9.18;;;7.60;93.30;;;7.17;81.14;98229.00;4976441;28;20047;-87
2020/12/12 04:10:04;;;;;;;15.35;9.45;;;7.60;93.30;;;7.15;80.78;98225.69;4977442;28;20067;-86
2020/12/12 04:12:31;;;;;;;15.48;9.98;;;7.70;93.40;;;7.17;80.15;98229.00;4977763;28;20046;-86
2020/12/12 04:14:58;;;;;;;15.55;10.00;;;7.60;93.20;;;7.20;80.93;98228.56;4977480;28;20147;-87
2020/12/12 04:17:25;;;;;;;15.57;9.57;;;7.80;93.30;;;7.14;80.61;98234.81;4977210;28;20074;-87
2020/12/12 04:19:52;;;;;;;15.95;10.18;;;7.60;93.30;;;7.10;81.25;98225.50;4977248;28;20066;-87
2020/12/12 04:22:19;;;;;;;16.33;9.73;;;7.70;93.30;;;7.12;80.92;98228.81;4977089;28;20089;-87
2020/12/12 04:24:46;;;;;;;16.67;10.40;;;7.70;93.10;;;7.16;80.52;98230.88;4972402;28;20578;-86
2020/12/12 04:27:13;;;;;;;15.77;9.20;;;7.70;93.10;;;7.16;80.50;98224.63;4972974;28;20117;-86
2020/12/12 04:29:40;;;;;;;18.08;10.05;;;7.70;93.20;;;7.18;81.10;98239.59;4973288;28;20829;-86
2020/12/12 04:32:06;;;;;;;17.20;11.00;;;7.70;93.20;;;7.18;80.51;98238.78;4973180;28;20126;-86
2020/12/12 04:34:33;;;;;;;15.23;10.27;;;7.70;93.10;;;7.22;80.41;98240.00;4972772;28;20105;-86
2020/12/12 04:37:00;;;;;;;16.67;10.00;;;7.70;93.00;;;7.26;80.42;98243.91;4973057;28;20042;-86
2020/12/12 04:39:27;;;;;;;16.73;10.45;;;7.70;93.00;;;7.27;80.58;98242.84;4972615;28;20462;-86
2020/12/12 04:41:54;;;;;;;14.75;9.63;;;7.70;93.10;;;7.29;80.84;98248.91;4972830;28;20070;-86
2020/12/12 04:44:22;;;;;;;17.02;10.02;;;7.70;93.20;;;7.31;80.38;98246.78;4967466;28;20063;-86
2020/12/12 04:46:50;;;;;;;16.15;10.10;;;7.70;93.20;;;7.31;79.69;98248.66;4952813;28;20580;-86
2020/12/12 04:49:18;;;;;;;16.25;10.02;;;7.70;93.20;;;7.31;79.93;98256.78;4953729;28;20061;-86
2020/12/12 04:51:47;;;;;;;14.02;9.27;;;7.80;93.20;;;7.30;80.14;98264.06;4953283;28;20629;-86
2020/12/12 04:54:20;;;;;;;15.88;9.73;;;7.70;93.10;;;7.33;80.57;98255.53;4951466;29;20047;-86
2020/12/12 04:56:49;;;;;;;14.45;9.38;;;7.70;93.10;;;7.30;80.00;98253.25;4953336;28;20043;-86
2020/12/12 04:59:16;;;;;;;15.32;9.82;;;7.70;93.20;;;7.29;80.66;98258.88;4953259;29;20103;-86
2020/12/12 05:01:43;;;;;;;16.40;9.68;;;7.70;93.30;;;7.29;80.32;98251.59;4953243;28;20460;-86
2020/12/12 05:04:10;;;;;;;14.55;9.25;;;7.80;93.20;;;7.31;80.53;98260.31;4952854;28;20042;-87
2020/12/12 05:06:37;;;;;;;15.05;9.95;;;7.80;93.10;;;7.34;80.17;98259.88;4953324;28;20567;-86
2020/12/12 05:09:04;;;;;;;16.98;10.25;;;7.80;93.20;;;7.33;80.47;98254.66;4953044;28;20122;-86
2020/12/12 05:11:34;;;;;;;17.45;9.82;;;7.80;93.20;;;7.32;80.28;98261.16;4953083;28;20081;-86
2020/12/12 05:14:08;;;;;;;17.58;10.35;;;7.80;93.20;;;7.33;80.79;98262.78;4952809;28;20051;-87
2020/12/12 05:16:35;;;;;;;15.95;9.50;;;7.80;93.20;;;7.25;80.41;98272.00;4951655;29;20058;-86
2020/12/12 05:19:04;;;;;;;14.50;8.88;;;7.80;93.10;;;7.23;80.56;98265.97;4952916;28;20078;-86
2020/12/12 05:21:31;;;;;;;16.02;9.75;;;7.80;92.90;;;7.29;80.79;98267.84;4953089;28;20047;-86
2020/12/12 05:24:00;;;;;;;15.23;9.30;;;7.80;93.00;;;7.31;81.22;98265.75;4952552;28;20067;-86
2020/12/12 05:26:29;;;;;;;14.60;9.30;;;7.80;93.00;;;7.32;80.59;98267.38;4952905;28;20051;-86
2020/12/12 05:29:00;;;;;;;13.55;8.82;;;7.80;93.00;;;7.31;80.71;98268.44;4952828;28;20057;-86
2020/12/12 05:31:28;;;;;;;14.32;8.70;;;7.80;93.10;;;7.35;80.50;98276.91;4951674;29;20109;-86
2020/12/12 05:33:55;;;;;;;13.68;8.32;;;7.80;93.10;;;7.36;81.00;98273.19;4952543;28;20731;-86
2020/12/12 05:36:27;;;;;;;14.02;9.18;;;7.90;93.20;;;7.38;80.67;98274.63;4952749;28;20562;-86
2020/12/12 05:38:59;;;;;;;13.73;8.95;;;7.90;93.20;;;7.36;80.98;98276.72;4952707;28;20039;-86
2020/12/12 05:41:27;;;;;;;13.13;8.65;;;7.90;93.30;;;7.38;80.65;98273.78;4952470;28;20057;-86
2020/12/12 05:43:54;;;;;;;13.25;8.65;;;7.90;93.20;;;7.38;80.54;98276.50;4952632;28;20129;-86
2020/12/12 05:46:23;;;;;;;14.32;9.52;;;7.90;93.20;;;7.41;80.78;98276.06;4952983;28;20070;-86
2020/12/12 05:48:51;;;;;;;13.20;8.60;;;7.90;93.10;;;7.36;80.79;98284.81;4952819;28;20137;-86
2020/12/12 05:51:19;;;;;;;13.65;9.02;;;7.90;93.00;;;7.41;80.76;98287.72;4952786;28;20070;-86
2020/12/12 05:53:46;;;;;;;14.93;9.20;;;7.90;93.10;;;7.41;80.67;98285.00;4951541;28;20122;-86
2020/12/12 05:56:14;;;;;;;16.33;9.85;;;7.90;93.10;;;7.46;80.58;98287.03;4951634;29;20082;-86
2020/12/12 05:58:45;;;;;;;15.50;9.02;;;7.90;93.10;;;7.45;80.94;98290.81;4955661;28;20075;-86
2020/12/12 06:01:18;;;;;;;13.93;8.68;;;7.90;93.30;;;7.48;81.06;98290.34;4956927;28;20142;-86
2020/12/12 06:03:54;;;;;;;12.45;8.20;;;8.00;93.40;;;7.51;81.45;98297.22;4956582;28;20084;-86
2020/12/12 06:06:24;;;;;;;14.57;8.65;;;7.90;93.40;;;7.48;80.90;98297.66;4956540;28;20056;-86
2020/12/12 06:09:02;;;;;;;14.90;9.10;;;7.90;93.50;;;7.49;81.47;98300.16;4956474;28;20051;-86
2020/12/12 06:11:30;;;;;;;15.80;9.10;;;7.90;93.40;;;7.48;80.99;98303.06;4956518;28;20236;-86
2020/12/12 06:14:04;;;;;;;14.57;8.38;;;7.90;93.70;;;7.48;80.79;98303.06;4955980;28;20086;-86
2020/12/12 06:16:33;;;;;;;15.07;9.13;;;7.90;93.80;;;7.44;81.41;98311.66;4955025;29;20499;-86
2020/12/12 06:19:12;;;;;;;14.18;9.18;;;7.90;93.80;;;7.46;81.51;98305.16;4956170;28;20547;-86
2020/12/12 06:21:42;;;;;;;16.95;9.48;;;7.90;93.90;;;7.44;81.96;98317.06;4956568;28;20083;-86
2020/12/12 06:24:11;;;;;;;15.13;9.23;;;7.90;94.00;;;7.39;82.49;98316.88;4955603;28;20067;-86
2020/12/12 06:26:53;;;;;;;15.68;9.65;;;7.90;94.10;;;7.40;82.39;98317.69;4956080;28;20471;-86
2020/12/12 06:29:21;;;;;;;16.20;9.50;;;7.90;94.20;;;7.41;82.24;98325.59;4956130;28;20089;-86
2020/12/12 06:31:48;;;;;;;14.23;8.93;;;7.90;94.40;;;7.42;82.01;98324.56;4955976;28;20043;-86
2020/12/12 06:34:15;;;;;;;15.48;8.68;;;7.90;94.40;;;7.42;82.17;98332.69;4954153;28;20090;-86
2020/12/12 06:36:47;;;;;;;13.32;8.68;;;7.90;94.50;;;7.43;81.98;98336.22;4956054;28;20141;-86
2020/12/12 06:39:23;;;;;;;;;;;7.90;94.70;;;7.46;82.22;98340.34;4955849;28;20479;-86
2020/12/12 06:41:53;;;;;;;15.80;9.15;;;7.90;94.80;;;7.45;82.42;98342.22;4955763;28;20017;-86
2020/12/12 06:44:34;;;;;;;17.10;9.77;;;7.90;94.70;;;7.42;82.00;98343.50;4955324;28;20051;-86
2020/12/12 06:47:02;;;;;;;15.40;9.40;;;7.90;94.60;;;7.47;82.10;98350.13;4955655;28;20047;-86
2020/12/12 06:49:29;;;;;;;15.55;9.30;;;7.90;94.60;;;7.42;82.07;98358.91;4962451;28;20117;-86
2020/12/12 06:51:56;;;;;;;16.27;9.50;;;7.90;94.70;;;7.42;82.17;98354.34;4974859;28;20114;-86
2020/12/12 06:54:24;;;;;;;14.68;8.88;;;7.90;94.80;;;7.43;82.26;98361.38;4975041;28;20062;-84
2020/12/12 06:56:51;;;;;;;15.45;9.13;;;7.90;94.80;;;7.46;82.48;98364.72;4980462;28;20078;-81
2020/12/12 06:59:31;;;;;;;16.20;9.63;;;7.90;94.70;;;7.48;81.67;98366.13;4983074;28;20076;-84
2020/12/12 07:02:00;;;;;;;14.38;8.80;;;7.90;94.70;;;7.51;81.79;98367.59;4975668;28;20097;-84
2020/12/12 07:04:31;;;;;;;16.80;9.93;;;7.90;94.70;;;7.53;81.95;98377.16;4975341;28;20074;-85
2020/12/12 07:07:05;;;;;;;15.77;9.43;;;7.90;94.80;;;7.54;82.32;98372.56;4975357;28;20551;-85
2020/12/12 07:09:33;;;;;;;15.38;9.20;;;7.90;94.90;;;7.55;81.70;98374.22;4974213;28;20055;-85
2020/12/12 07:12:00;;;;;;;13.90;8.85;;;7.90;95.00;;;7.54;81.74;98383.38;4974895;28;20057;-84
2020/12/12 07:14:27;;;;;;;14.45;9.00;;;7.90;95.20;;;7.51;82.02;98383.84;4974384;28;20061;-85
2020/12/12 07:16:56;;;;;;;14.75;8.95;;;7.90;95.30;;;7.52;82.16;98396.31;4975373;28;20509;-85
2020/12/12 07:19:33;;;;;;;14.95;9.27;;;7.90;95.20;;;7.49;82.69;98381.34;4975308;28;20046;-85
2020/12/12 07:22:01;;;;;;;16.73;9.27;;;7.90;95.20;;;7.51;82.24;98389.25;4975540;28;20427;-85
2020/12/12 07:24:28;;;;;;;18.92;9.38;;;7.90;95.20;;;7.52;82.32;98393.59;4974426;28;20118;-85
2020/12/12 07:26:56;;;;;;;14.38;9.02;;;7.90;95.20;;;7.53;82.54;98400.69;4974877;28;20066;-85
2020/12/12 07:29:23;;;;;;;17.42;9.18;;;7.90;95.20;;;7.52;82.83;98404.44;4974924;28;20491;-85
2020/12/12 07:31:51;;;;;;;15.32;9.65;;;7.90;95.20;;;7.57;82.52;98407.31;4975885;28;20074;-85
2020/12/12 07:34:19;;;;;;;13.80;8.70;;;7.90;95.40;;;7.56;82.23;98411.09;4974736;28;20043;-85
2020/12/12 07:37:02;;;;;;;16.88;9.02;;;7.90;95.30;;;7.58;82.02;98414.41;4974887;28;20129;-85
2020/12/12 07:39:31;;;;;;;15.55;8.90;;;8.00;95.20;;;7.59;81.69;98416.06;4973231;28;20058;-85
2020/12/12 07:42:01;;;;;;;15.95;10.00;;;8.00;95.30;;;7.58;81.94;98428.75;4973975;28;20519;-85
2020/12/12 07:44:35;;;;;;;14.65;8.80;;;8.00;95.30;;;7.56;82.79;98435.44;4972304;28;20051;-84
2020/12/12 07:47:04;;;;;;;15.27;9.45;;;8.00;95.40;;;7.55;82.42;98428.38;4972641;28;20078;-84
2020/12/12 07:49:33;;;;;;;16.30;9.30;;;7.90;95.50;;;7.57;82.89;98442.50;4978654;28;20077;-84
2020/12/12 07:52:07;;;;;;;17.88;10.45;;;7.90;95.50;;;7.53;82.25;98441.28;4976380;28;20082;-84
2020/12/12 07:54:38;;;;;;;20.40;10.77;;;8.00;95.40;;;7.54;83.20;98446.50;4975655;28;20230;-84
2020/12/12 07:57:07;;;;;;;17.92;10.93;;;8.00;95.30;;;7.58;82.67;98447.72;4973822;28;20042;-85
2020/12/12 07:59:34;;;;;;;18.50;11.07;;;8.10;95.30;;;7.59;82.51;98449.34;4974329;28;20043;-88
2020/12/12 08:02:03;;;;;;;16.92;10.55;;;8.10;95.30;;;7.56;82.72;98459.81;4974802;28;20043;-85
2020/12/12 08:04:29;;;;;;;17.38;9.85;;;8.00;95.30;;;7.56;83.52;98462.53;4975566;28;20434;-85
2020/12/12 08:06:56;;;;;;;16.73;9.70;;;8.10;95.30;;;7.55;82.80;98467.09;4973993;28;20066;-85
2020/12/12 08:09:25;;;;;;;14.27;9.00;;;8.00;95.20;;;7.57;82.79;98469.56;4973753;28;20415;-84
2020/12/12 08:12:00;;;;;;;15.80;8.80;;;8.00;95.30;;;7.53;83.42;98471.06;4973612;28;20125;-84
2020/12/12 08:14:30;;;;;;;12.27;8.27;;;8.10;95.50;;;7.56;83.26;98476.06;4973609;28;20078;-85
2020/12/12 08:16:58;;;;;;;14.70;9.05;;;8.10;95.40;;;7.55;83.27;98482.50;4974037;28;20062;-85
2020/12/12 08:19:27;;;;;;;15.50;9.25;;;8.10;95.30;;;7.55;83.50;98482.50;4973848;28;20062;-85
2020/12/12 08:22:11;;;;;;;15.30;9.30;;;8.10;95.20;;;7.53;83.64;98484.59;4974172;28;20113;-85
2020/12/12 08:24:39;;;;;;;14.55;8.68;;;8.10;95.30;;;7.56;83.54;98484.19;4973798;28;20503;-85
2020/12/12 08:27:11;;;;;;;13.63;8.70;;;8.10;95.30;;;7.61;83.38;98497.88;4973821;28;20049;-85
2020/12/12 08:29:43;;;;;;;13.35;8.15;;;8.10;95.40;;;7.61;83.39;98500.56;4973531;28;20085;-85
2020/12/12 08:32:36;;;;;;;13.05;8.55;;;8.10;95.40;;;7.64;82.85;98508.28;4973451;28;20515;-84
2020/12/12 08:35:19;;;;;;;13.30;8.75;;;8.10;95.40;;;7.65;82.69;98509.94;4975777;28;20522;-85
2020/12/12 08:37:58;;;;;;;13.13;8.02;;;8.10;95.50;;;7.62;83.15;98515.78;4973817;28;20077;-83
2020/12/12 08:40:28;;;;;;;12.73;8.50;;;8.10;95.50;;;7.64;82.82;98519.94;4978265;28;20051;-85
2020/12/12 08:43:06;;;;;;;12.52;7.82;;;8.10;95.50;;;7.68;83.24;98520.34;4981420;28;20066;-85
2020/12/12 08:45:34;;;;;;;13.68;9.25;;;8.20;95.30;;;7.68;83.17;98519.50;4978073;28;20043;-85
2020/12/12 08:48:07;;;;;;;14.35;8.73;;;8.20;95.40;;;7.68;82.88;98525.75;4976877;28;20039;-85
2020/12/12 08:50:54;;;;;;;14.75;8.73;;;8.20;95.40;;;7.68;83.23;98523.03;4978951;28;20101;-83
2020/12/12 08:53:29;;;;;;;14.43;8.60;;;8.20;95.50;;;7.68;83.20;98525.75;4971165;28;20044;-82
2020/12/12 08:56:09;;;;;;;15.65;8.93;;;8.20;95.40;;;7.67;82.91;98528.66;4963821;29;20480;-82
2020/12/12 08:58:57;;;;;;;12.93;8.15;;;8.20;95.30;;;7.69;82.90;98535.56;4962868;28;20086;-82
2020/12/12 09:01:32;;;;;;;13.00;8.73;;;8.20;95.30;;;7.71;82.76;98536.16;4963257;29;20049;-81
2020/12/12 09:04:21;;;;;;;14.90;8.27;;;8.20;95.30;;;7.74;82.74;98534.88;4964906;29;20051;-81
2020/12/12 09:06:57;;;;;;;14.02;8.05;;;8.20;95.20;;;7.70;82.92;98536.38;4962163;28;20051;-81
2020/12/12 09:09:25;;;;;;;22.42;12.82;;;8.20;95.30;;;7.65;82.97;98545.13;4964615;28;20146;-82
2020/12/12 09:11:59;;;;;;;33.20;18.05;;;8.30;95.20;;;7.66;83.22;98548.69;4962454;28;20051;-83
2020/12/12 09:14:28;;;;;;;22.50;12.85;;;8.30;95.20;;;7.69;83.02;98553.66;4964318;29;20043;-82
2020/12/12 09:16:58;;;;;;;14.02;9.40;;;8.30;95.00;;;7.70;83.30;98553.44;4963142;29;20058;-82
2020/12/12 09:19:27;;;;;;;12.93;8.73;;;8.30;94.90;;;7.71;82.80;98568.66;4962254;29;20047;-83
2020/12/12 09:21:54;;;;;;;12.95;8.40;;;8.30;95.00;;;7.74;83.30;98572.78;4959943;29;20611;-82
2020/12/12 09:24:22;;;;;;;13.52;8.40;;;8.30;94.90;;;7.77;82.68;98573.19;4960668;29;20054;-82
2020/12/12 09:26:54;;;;;;;13.82;8.20;;;8.30;94.90;;;7.76;82.68;98576.94;4960427;28;20089;-82
2020/12/12 09:29:22;;;;;;;16.95;8.77;;;8.30;95.00;;;7.76;83.22;98582.34;4960448;29;20071;-83
2020/12/12 09:31:50;;;;;;;12.10;7.63;;;8.40;95.10;;;7.81;83.25;98584.44;4960942;28;20051;-83
2020/12/12 09:34:18;;;;;;;12.85;7.85;;;8.40;95.00;;;7.83;82.65;98582.34;4965851;28;20106;-83
2020/12/12 09:36:45;;;;;;;12.40;7.97;;;8.40;94.80;;;7.87;82.95;98593.59;4968095;28;20039;-80
2020/12/12 09:39:12;;;;;;;12.07;8.13;;;8.40;94.90;;;7.86;82.90;98591.91;4968084;28;20555;-83
2020/12/12 09:41:39;;;;;;;11.75;7.90;;;8.40;95.00;;;7.87;82.71;98588.16;4967716;29;20122;-81
2020/12/12 09:44:06;;;;;;;11.50;7.38;;;8.40;94.90;;;7.88;83.21;98595.22;4967522;28;20047;-82
2020/12/12 09:46:33;;;;;;;10.73;7.32;;;8.40;94.80;;;7.88;83.37;98595.22;4969230;29;20055;-82
2020/12/12 09:49:00;;;;;;;12.05;7.78;;;8.40;94.80;;;7.90;83.09;98599.41;4970844;28;20161;-82
2020/12/12 09:51:27;;;;;;;11.30;7.45;;;8.40;95.00;;;7.91;82.51;98605.66;4968883;28;20051;-81
2020/12/12 09:53:54;;;;;;;10.50;7.55;;;8.50;94.90;;;7.93;82.91;98603.56;4964468;28;20138;-81
2020/12/12 09:56:22;;;;;;;13.05;8.00;;;8.50;95.20;;;7.90;83.03;98612.09;4962776;29;20043;-84
2020/12/12 09:58:49;;;;;;;11.25;7.55;;;8.50;94.90;;;7.95;82.95;98606.88;4971326;29;20043;-84
2020/12/12 10:01:19;;;;;;;12.23;7.80;;;8.50;94.80;;;7.93;83.44;98608.97;4971658;29;20055;-85
2020/12/12 10:03:47;;;;;;;11.77;7.55;;;8.50;95.20;;;7.85;84.16;98611.94;4968489;28;20047;-84
2020/12/12 10:06:14;;;;;;;9.93;6.80;;;8.60;95.30;;;7.89;84.29;98613.16;4969350;29;20055;-85
2020/12/12 10:08:41;;;;;;;10.60;6.72;;;8.60;94.80;;;7.89;83.78;98616.69;4964687;28;20543;-84
2020/12/12 10:11:08;;;;;;;10.88;7.00;;;8.60;94.90;;;7.93;83.99;98619.81;4965282;28;20130;-84
2020/12/12 10:13:37;;;;;;;10.68;7.35;;;8.60;94.80;;;7.94;83.72;98622.31;4962196;29;20075;-84
2020/12/12 10:16:04;;;;;;;11.27;7.40;;;8.60;94.70;;;7.98;83.28;98625.41;4963582;28;20051;-84
2020/12/12 10:18:31;;;;;;;10.65;6.85;;;8.60;94.70;;;7.97;83.38;98629.97;4963155;28;20051;-84
2020/12/12 10:20:59;;;;;;;10.63;6.90;;;8.70;94.80;;;8.01;83.35;98622.25;4961058;28;20051;-82
2020/12/12 10:23:26;;;;;;;10.25;7.00;;;8.60;94.40;;;8.05;83.03;98634.31;4976781;28;20059;-82
2020/12/12 10:25:52;;;;;;;11.45;7.03;;;8.60;94.50;;;8.08;83.28;98633.09;4959922;29;20504;-82
2020/12/12 10:28:19;;;;;;;10.82;7.07;;;8.60;94.70;;;8.07;82.69;98642.25;4959524;29;20039;-81
2020/12/12 10:30:46;;;;;;;10.93;6.70;;;8.60;94.50;;;8.08;82.61;98641.22;4959367;29;20571;-81
2020/12/12 10:33:13;;;;;;;11.73;7.10;;;8.60;94.60;;;8.10;83.00;98636.41;4959991;28;20047;-82